createdAt,value
2023-03-06T00:00:12.270Z,27.67
2023-03-06T00:02:38.937Z,27.73
2023-03-06T00:05:06.033Z,30.77
2023-03-06T00:07:32.734Z,28.70
2023-03-06T00:09:59.497Z,26.20
2023-03-06T00:12:27.624Z,26.30
2023-03-06T00:14:55.241Z,30.43
2023-03-06T00:17:21.983Z,27.33
2023-03-06T00:19:48.811Z,26.40
2023-03-06T00:22:16.103Z,25.37
2023-03-06T00:24:44.452Z,35.47
2023-03-06T00:27:11.147Z,27.80
2023-03-06T00:29:37.850Z,29.40
2023-03-06T00:32:06.599Z,28.70
2023-03-06T00:34:33.903Z,35.00
2023-03-06T00:37:00.564Z,27.53
2023-03-06T00:39:27.344Z,34.23
2023-03-06T00:41:54.211Z,26.90
2023-03-06T00:44:20.847Z,31.33
2023-03-06T00:46:47.584Z,31.67
2023-03-06T00:49:14.216Z,32.63
2023-03-06T00:51:40.900Z,33.07
2023-03-06T00:54:08.337Z,33.10
2023-03-06T00:56:35.036Z,32.20
2023-03-06T00:59:02.020Z,30.40
2023-03-06T01:01:29.502Z,31.50
2023-03-06T01:03:56.169Z,30.67
2023-03-06T01:06:23.128Z,27.77
2023-03-06T01:08:49.824Z,34.87
2023-03-06T01:11:17.580Z,28.13
2023-03-06T01:13:44.635Z,27.43
2023-03-06T01:16:15.467Z,30.63
2023-03-06T01:18:42.564Z,28.93
2023-03-06T01:21:09.280Z,31.47
2023-03-06T01:23:35.977Z,29.83
2023-03-06T01:26:02.981Z,26.63
2023-03-06T01:28:29.920Z,27.87
2023-03-06T01:30:58.172Z,29.73
2023-03-06T01:33:25.585Z,33.30
2023-03-06T01:35:52.351Z,29.53
2023-03-06T01:38:19.096Z,29.80
2023-03-06T01:40:46.018Z,27.77
2023-03-06T01:43:25.892Z,29.13
2023-03-06T01:45:53.037Z,31.37
2023-03-06T01:48:22.502Z,28.93
2023-03-06T01:50:51.149Z,25.80
2023-03-06T01:53:18.756Z,30.63
2023-03-06T01:55:45.574Z,32.80
2023-03-06T01:58:15.008Z,27.80
2023-03-06T02:00:41.912Z,30.13
2023-03-06T02:03:15.070Z,34.53
2023-03-06T02:05:43.042Z,30.00
2023-03-06T02:08:11.727Z,30.03
2023-03-06T02:10:43.220Z,30.53
2023-03-06T02:13:10.127Z,35.20
2023-03-06T02:15:38.089Z,25.77
2023-03-06T02:18:04.808Z,27.27
2023-03-06T02:20:34.846Z,28.83
2023-03-06T02:23:08.070Z,32.23
2023-03-06T02:25:40.724Z,29.90
2023-03-06T02:28:12.774Z,28.27
2023-03-06T02:30:41.701Z,32.43
2023-03-06T02:33:13.820Z,33.00
2023-03-06T02:35:44.239Z,34.30
2023-03-06T02:38:14.693Z,28.17
2023-03-06T02:40:44.008Z,31.37
2023-03-06T02:43:12.574Z,35.87
2023-03-06T02:45:45.198Z,28.97
2023-03-06T02:48:13.643Z,27.97
2023-03-06T02:50:41.201Z,33.77
2023-03-06T02:53:08.414Z,32.03
2023-03-06T02:55:35.633Z,28.87
2023-03-06T02:58:03.674Z,32.17
2023-03-06T03:00:31.408Z,28.27
2023-03-06T03:03:00.433Z,33.23
2023-03-06T03:05:27.242Z,32.37
2023-03-06T03:07:59.767Z,30.33
2023-03-06T03:10:27.898Z,34.97
2023-03-06T03:12:54.909Z,31.30
2023-03-06T03:15:23.212Z,33.00
2023-03-06T03:17:49.849Z,32.03
2023-03-06T03:20:18.905Z,31.83
2023-03-06T03:22:55.069Z,27.67
2023-03-06T03:25:23.901Z,30.23
2023-03-06T03:27:51.663Z,31.17
2023-03-06T03:30:19.692Z,34.83
2023-03-06T03:32:46.492Z,31.80
2023-03-06T03:35:13.514Z,31.57
2023-03-06T03:37:41.088Z,30.37
2023-03-06T03:40:10.261Z,34.87
2023-03-06T03:42:37.181Z,30.93
2023-03-06T03:45:05.439Z,32.13
2023-03-06T03:47:32.282Z,35.83
2023-03-06T03:50:00.133Z,29.60
2023-03-06T03:52:26.874Z,33.33
2023-03-06T03:54:53.648Z,31.23
2023-03-06T03:57:20.640Z,35.27
2023-03-06T03:59:50.918Z,36.13
2023-03-06T04:02:25.573Z,29.57
2023-03-06T04:05:15.857Z,33.83
2023-03-06T04:07:43.219Z,31.77
2023-03-06T04:10:11.699Z,29.60
2023-03-06T04:12:38.946Z,34.67
2023-03-06T04:15:07.830Z,33.67
2023-03-06T04:17:35.652Z,32.73
2023-03-06T04:20:05.742Z,34.03
2023-03-06T04:22:33.465Z,35.27
2023-03-06T04:25:00.731Z,38.07
2023-03-06T04:27:27.560Z,38.77
2023-03-06T04:29:56.330Z,37.03
2023-03-06T04:32:24.069Z,37.03
2023-03-06T04:34:51.347Z,35.10
2023-03-06T04:37:23.540Z,37.70
2023-03-06T04:39:51.067Z,37.07
2023-03-06T04:42:18.543Z,41.27
2023-03-06T04:44:45.669Z,39.00
2023-03-06T04:47:12.651Z,40.90
2023-03-06T04:49:39.370Z,38.50
2023-03-06T04:52:06.353Z,39.47
2023-03-06T04:54:33.872Z,37.70
2023-03-06T04:57:00.875Z,34.40
2023-03-06T04:59:27.503Z,37.42
2023-03-06T05:01:54.314Z,40.63
2023-03-06T05:04:21.065Z,40.05
2023-03-06T05:06:47.849Z,47.47
2023-03-06T05:09:14.531Z,39.10
2023-03-06T05:11:41.282Z,41.73
2023-03-06T05:14:08.020Z,40.20
2023-03-06T05:16:34.732Z,37.05
2023-03-06T05:19:01.475Z,38.50
2023-03-06T05:21:28.274Z,36.75
2023-03-06T05:23:54.941Z,39.53
2023-03-06T05:26:21.682Z,38.00
2023-03-06T05:28:48.553Z,45.60
2023-03-06T05:31:15.402Z,37.57
2023-03-06T05:33:42.246Z,35.50
2023-03-06T05:36:10.032Z,40.87
2023-03-06T05:38:36.676Z,44.20
2023-03-06T05:41:03.491Z,41.15
2023-03-06T05:43:30.143Z,40.37
2023-03-06T05:46:02.546Z,42.73
2023-03-06T05:48:29.554Z,42.53
2023-03-06T05:51:00.259Z,41.87
2023-03-06T05:53:27.118Z,40.73
2023-03-06T05:56:03.967Z,40.27
2023-03-06T05:58:32.877Z,37.20
2023-03-06T06:01:00.460Z,41.20
2023-03-06T06:03:27.535Z,41.93
2023-03-06T06:05:54.255Z,37.85
2023-03-06T06:08:21.205Z,40.07
2023-03-06T06:10:47.914Z,40.77
2023-03-06T06:13:14.851Z,42.27
2023-03-06T06:15:41.675Z,40.10
2023-03-06T06:18:08.503Z,40.65
2023-03-06T06:20:37.684Z,41.73
2023-03-06T06:23:04.867Z,40.28
2023-03-06T06:25:32.015Z,37.63
2023-03-06T06:27:58.714Z,39.92
2023-03-06T06:30:25.484Z,40.65
2023-03-06T06:32:52.310Z,40.33
2023-03-06T06:35:19.080Z,37.05
2023-03-06T06:37:45.805Z,36.50
2023-03-06T06:40:12.770Z,36.30
2023-03-06T06:42:40.371Z,42.17
2023-03-06T06:45:09.675Z,37.67
2023-03-06T06:47:41.062Z,37.37
2023-03-06T06:50:15.018Z,35.97
2023-03-06T06:52:41.931Z,34.27
2023-03-06T06:55:09.789Z,38.03
2023-03-06T06:57:36.598Z,38.47
2023-03-06T07:00:04.838Z,40.22
2023-03-06T07:02:32.337Z,36.60
2023-03-06T07:05:06.104Z,37.15
2023-03-06T07:07:37.282Z,45.05
2023-03-06T07:10:07.989Z,41.60
2023-03-06T07:12:35.218Z,39.75
2023-03-06T07:15:02.642Z,37.22
2023-03-06T07:17:31.663Z,36.93
2023-03-06T07:19:59.591Z,40.90
2023-03-06T07:22:26.436Z,44.70
2023-03-06T07:24:53.107Z,41.93
2023-03-06T07:27:19.985Z,35.50
2023-03-06T07:29:46.844Z,37.53
2023-03-06T07:32:13.883Z,35.67
2023-03-06T07:34:40.681Z,36.93
2023-03-06T07:37:07.428Z,39.83
2023-03-06T07:39:34.088Z,38.63
2023-03-06T07:42:00.817Z,41.40
2023-03-06T07:44:27.654Z,40.47
2023-03-06T07:46:54.429Z,38.43
2023-03-06T07:49:21.542Z,37.87
2023-03-06T07:51:48.289Z,43.83
2023-03-06T07:54:14.949Z,44.77
2023-03-06T07:56:43.731Z,39.03
2023-03-06T07:59:11.938Z,37.33
2023-03-06T08:01:40.305Z,40.77
2023-03-06T08:04:10.356Z,39.20
2023-03-06T08:06:37.278Z,37.53
2023-03-06T08:09:04.281Z,34.83
2023-03-06T08:11:31.469Z,35.87
2023-03-06T08:13:59.754Z,39.63
2023-03-06T08:16:29.577Z,38.50
2023-03-06T08:18:56.974Z,41.80
2023-03-06T08:21:26.222Z,38.43
2023-03-06T08:23:53.201Z,39.93
2023-03-06T08:26:22.639Z,36.77
2023-03-06T08:28:51.292Z,40.63
2023-03-06T08:31:18.068Z,36.43
2023-03-06T08:33:45.418Z,38.10
2023-03-06T08:36:12.113Z,38.17
2023-03-06T08:38:38.877Z,41.90
2023-03-06T08:41:05.666Z,40.33
2023-03-06T08:43:32.477Z,37.50
2023-03-06T08:45:59.391Z,37.57
2023-03-06T08:48:26.286Z,37.97
2023-03-06T08:50:54.300Z,37.23
2023-03-06T08:53:22.715Z,38.77
2023-03-06T08:55:54.855Z,38.97
2023-03-06T08:58:24.543Z,36.47
2023-03-06T09:00:52.036Z,37.97
2023-03-06T09:03:19.757Z,44.67
2023-03-06T09:05:46.579Z,34.83
2023-03-06T09:08:13.331Z,34.60
2023-03-06T09:10:40.160Z,33.43
2023-03-06T09:13:12.079Z,37.70
2023-03-06T09:15:39.163Z,35.90
2023-03-06T09:18:05.816Z,34.60
2023-03-06T09:20:32.541Z,37.17
2023-03-06T09:22:59.225Z,34.40
2023-03-06T09:25:26.058Z,34.57
2023-03-06T09:28:08.716Z,34.60
2023-03-06T09:30:40.674Z,35.87
2023-03-06T09:33:07.967Z,35.87
2023-03-06T09:35:34.976Z,32.00
2023-03-06T09:38:02.859Z,33.07
2023-03-06T09:40:58.781Z,34.73
2023-03-06T09:43:39.480Z,36.07
2023-03-06T09:46:53.361Z,35.77
2023-03-06T09:49:40.376Z,28.60
2023-03-06T09:52:38.690Z,36.00
2023-03-06T09:55:18.988Z,30.07
2023-03-06T09:57:55.107Z,31.40
2023-03-06T10:00:31.026Z,31.50
2023-03-06T10:03:06.036Z,27.87
2023-03-06T10:05:40.357Z,30.77
2023-03-06T10:08:31.062Z,27.47
2023-03-06T10:11:01.974Z,29.80
2023-03-06T10:13:54.549Z,33.73
2023-03-06T10:16:32.522Z,30.27
2023-03-06T10:19:05.432Z,29.30
2023-03-06T10:21:53.478Z,26.47
2023-03-06T10:24:50.734Z,30.73
2023-03-06T10:27:38.773Z,29.53
2023-03-06T10:30:26.988Z,29.93
2023-03-06T10:32:58.688Z,29.73
2023-03-06T10:35:30.769Z,31.93
2023-03-06T10:38:01.347Z,29.37
2023-03-06T10:40:36.283Z,33.60
2023-03-06T10:43:11.476Z,25.03
2023-03-06T10:45:50.989Z,28.00
2023-03-06T10:48:21.252Z,29.67
2023-03-06T10:50:48.606Z,27.73
2023-03-06T10:53:26.661Z,29.70
2023-03-06T10:55:59.016Z,27.83
2023-03-06T10:58:28.397Z,39.17
2023-03-06T11:01:07.302Z,36.40
2023-03-06T11:03:35.598Z,32.53
2023-03-06T11:06:05.209Z,31.13
2023-03-06T11:08:32.703Z,29.67
2023-03-06T11:11:04.833Z,30.10
2023-03-06T11:13:35.075Z,28.37
2023-03-06T11:16:15.395Z,29.97
2023-03-06T11:18:58.716Z,26.13
2023-03-06T11:21:31.287Z,26.50
2023-03-06T11:24:17.530Z,35.77
2023-03-06T11:26:48.493Z,25.27
2023-03-06T11:29:35.771Z,26.97
2023-03-06T11:32:15.152Z,25.47
2023-03-06T11:34:50.394Z,24.93
2023-03-06T11:37:37.666Z,26.10
2023-03-06T11:40:10.870Z,26.60
2023-03-06T11:42:40.923Z,26.27
2023-03-06T11:45:31.903Z,25.90
2023-03-06T11:48:10.683Z,25.77
2023-03-06T11:50:54.408Z,29.50
2023-03-06T11:53:35.625Z,23.00
2023-03-06T11:56:31.827Z,22.27
2023-03-06T11:59:17.432Z,21.60
2023-03-06T12:02:02.976Z,24.07
2023-03-06T12:05:11.802Z,23.33
2023-03-06T12:08:00.406Z,24.03
2023-03-06T12:10:38.275Z,20.77
2023-03-06T12:13:20.713Z,25.27
2023-03-06T12:16:22.951Z,22.90
2023-03-06T12:18:58.744Z,27.30
2023-03-06T12:21:37.582Z,25.67
2023-03-06T12:24:22.617Z,27.73
2023-03-06T12:27:13.514Z,28.17
2023-03-06T12:29:47.829Z,28.40
2023-03-06T12:32:39.744Z,30.73
2023-03-06T12:35:37.220Z,26.93
2023-03-06T12:38:06.798Z,25.87
2023-03-06T12:41:02.997Z,28.47
2023-03-06T12:43:39.543Z,33.07
2023-03-06T12:46:14.410Z,28.50
2023-03-06T12:48:44.264Z,30.33
2023-03-06T12:51:13.833Z,27.87
2023-03-06T12:53:41.267Z,30.20
2023-03-06T12:56:08.354Z,22.80
2023-03-06T12:58:36.603Z,23.37
2023-03-06T13:01:08.956Z,23.83
2023-03-06T13:04:08.008Z,20.23
2023-03-06T13:07:00.570Z,24.27
2023-03-06T13:09:48.847Z,24.93
2023-03-06T13:12:26.071Z,23.73
2023-03-06T13:14:55.291Z,28.60
2023-03-06T13:17:25.086Z,23.70
2023-03-06T13:20:13.755Z,23.07
2023-03-06T13:22:41.882Z,22.60
2023-03-06T13:25:21.056Z,27.00
2023-03-06T13:28:03.228Z,22.77
2023-03-06T13:30:39.048Z,22.30
2023-03-06T13:33:24.973Z,21.00
2023-03-06T13:35:57.693Z,25.10
2023-03-06T13:38:36.896Z,24.10
2023-03-06T13:41:22.407Z,26.23
2023-03-06T13:43:56.783Z,25.63
2023-03-06T13:46:29.973Z,24.13
2023-03-06T13:49:07.974Z,28.90
2023-03-06T13:51:53.070Z,27.70
2023-03-06T13:54:32.117Z,27.57
2023-03-06T13:57:17.785Z,29.73
2023-03-06T14:00:08.729Z,29.20
2023-03-06T14:03:05.311Z,29.17
2023-03-06T14:05:47.274Z,29.07
2023-03-06T14:08:16.061Z,28.37
2023-03-06T14:10:44.441Z,28.40
2023-03-06T14:13:23.874Z,24.47
2023-03-06T14:15:52.785Z,27.67
2023-03-06T14:18:23.831Z,27.13
2023-03-06T14:20:59.721Z,27.93
2023-03-06T14:23:42.735Z,31.53
2023-03-06T14:26:18.295Z,25.30
2023-03-06T14:28:54.062Z,30.17
2023-03-06T14:31:23.883Z,31.33
2023-03-06T14:33:56.470Z,27.53
2023-03-06T14:36:30.965Z,25.73
2023-03-06T14:39:01.457Z,24.20
2023-03-06T14:41:35.814Z,24.17
2023-03-06T14:44:12.026Z,25.17
2023-03-06T14:46:38.791Z,26.90
2023-03-06T14:49:08.864Z,27.70
2023-03-06T14:51:46.542Z,23.13
2023-03-06T14:54:19.679Z,25.80
2023-03-06T14:56:49.127Z,24.53
2023-03-06T14:59:19.473Z,23.87
2023-03-06T15:01:49.504Z,28.53
2023-03-06T15:04:41.258Z,23.20
2023-03-06T15:07:14.811Z,21.50
2023-03-06T15:09:46.358Z,24.20
2023-03-06T15:12:21.233Z,19.90
2023-03-06T15:14:59.714Z,22.47
2023-03-06T15:17:30.685Z,23.53
2023-03-06T15:20:01.024Z,22.73
2023-03-06T15:22:33.898Z,22.40
2023-03-06T15:25:27.646Z,23.43
2023-03-06T15:27:57.089Z,24.03
2023-03-06T15:30:25.140Z,26.23
2023-03-06T15:32:52.185Z,28.10
2023-03-06T15:35:29.527Z,27.40
2023-03-06T15:37:57.500Z,21.37
2023-03-06T15:40:34.846Z,21.80
2023-03-06T15:43:02.889Z,26.20
2023-03-06T15:45:35.788Z,21.67
2023-03-06T15:48:02.917Z,22.83
2023-03-06T15:50:36.205Z,27.00
2023-03-06T15:53:03.104Z,25.20
2023-03-06T15:55:29.903Z,27.10
2023-03-06T15:58:02.155Z,25.47
2023-03-06T16:00:32.741Z,25.23
2023-03-06T16:03:00.525Z,23.43
2023-03-06T16:05:28.100Z,22.80
2023-03-06T16:07:56.905Z,22.77
2023-03-06T16:10:35.750Z,20.53
2023-03-06T16:13:06.839Z,20.57
2023-03-06T16:15:48.080Z,20.03
2023-03-06T16:18:15.106Z,23.70
2023-03-06T16:20:42.516Z,18.47
2023-03-06T16:23:10.893Z,21.80
2023-03-06T16:25:40.010Z,22.17
2023-03-06T16:28:12.037Z,16.97
2023-03-06T16:30:38.986Z,19.27
2023-03-06T16:33:06.430Z,15.57
2023-03-06T16:35:36.523Z,17.03
2023-03-06T16:38:03.379Z,15.90
2023-03-06T16:40:43.778Z,17.80
2023-03-06T16:43:13.961Z,16.70
2023-03-06T16:45:42.566Z,14.30
2023-03-06T16:48:21.316Z,15.30
2023-03-06T16:50:49.681Z,15.87
2023-03-06T16:53:17.399Z,14.30
2023-03-06T16:55:45.472Z,17.03
2023-03-06T16:58:12.555Z,21.60
2023-03-06T17:00:39.350Z,14.77
2023-03-06T17:03:06.656Z,19.73
2023-03-06T17:05:37.293Z,17.30
2023-03-06T17:08:07.086Z,19.27
2023-03-06T17:10:39.104Z,17.53
2023-03-06T17:13:08.082Z,21.27
2023-03-06T17:15:38.028Z,16.80
2023-03-06T17:18:06.151Z,17.57
2023-03-06T17:20:39.579Z,18.60
2023-03-06T17:23:07.638Z,17.63
2023-03-06T17:25:35.931Z,21.23
2023-03-06T17:28:04.436Z,20.43
2023-03-06T17:30:31.432Z,20.63
2023-03-06T17:33:00.448Z,21.00
2023-03-06T17:35:41.761Z,18.60
2023-03-06T17:38:10.140Z,22.93
2023-03-06T17:40:37.655Z,22.97
2023-03-06T17:43:05.502Z,21.57
2023-03-06T17:45:42.097Z,23.13
2023-03-06T17:48:10.715Z,22.50
2023-03-06T17:50:37.467Z,20.80
2023-03-06T17:53:04.425Z,20.23
2023-03-06T17:55:32.538Z,21.70
2023-03-06T17:58:00.271Z,18.33
2023-03-06T18:00:30.564Z,20.17
2023-03-06T18:03:00.957Z,20.00
2023-03-06T18:05:30.804Z,21.90
2023-03-06T18:08:01.357Z,21.80
2023-03-06T18:10:28.313Z,17.93
2023-03-06T18:12:58.606Z,17.77
2023-03-06T18:15:25.618Z,21.13
2023-03-06T18:17:54.999Z,19.20
2023-03-06T18:20:25.424Z,19.97
2023-03-06T18:22:52.297Z,22.70
2023-03-06T18:25:19.253Z,21.00
2023-03-06T18:27:46.471Z,21.43
2023-03-06T18:30:14.461Z,25.80
2023-03-06T18:32:41.321Z,21.47
2023-03-06T18:35:09.499Z,20.57
2023-03-06T18:37:36.331Z,20.57
2023-03-06T18:40:03.141Z,20.40
2023-03-06T18:42:29.951Z,21.47
2023-03-06T18:44:56.659Z,20.97
2023-03-06T18:47:23.732Z,22.23
2023-03-06T18:49:50.750Z,20.63
2023-03-06T18:52:17.535Z,23.87
2023-03-06T18:54:44.990Z,23.43
2023-03-06T18:57:11.833Z,23.10
2023-03-06T18:59:38.521Z,22.07
2023-03-06T19:02:05.277Z,26.10
2023-03-06T19:04:32.076Z,25.33
2023-03-06T19:06:58.905Z,21.57
2023-03-06T19:09:25.848Z,20.83
2023-03-06T19:11:54.765Z,21.73
2023-03-06T19:14:21.751Z,22.27
2023-03-06T19:16:48.536Z,20.83
2023-03-06T19:19:15.304Z,20.50
2023-03-06T19:21:42.583Z,20.10
2023-03-06T19:24:14.003Z,19.67
2023-03-06T19:26:41.893Z,20.67
2023-03-06T19:29:08.728Z,22.47
2023-03-06T19:31:35.565Z,19.60
2023-03-06T19:34:02.322Z,18.87
2023-03-06T19:36:33.670Z,17.00
2023-03-06T19:39:03.262Z,17.77
2023-03-06T19:41:30.571Z,16.97
2023-03-06T19:44:00.424Z,20.13
2023-03-06T19:46:27.998Z,18.93
2023-03-06T19:48:56.648Z,15.27
2023-03-06T19:51:23.885Z,17.37
2023-03-06T19:53:51.813Z,14.33
2023-03-06T19:56:26.041Z,15.47
2023-03-06T19:58:56.643Z,16.73
2023-03-06T20:01:25.700Z,16.47
2023-03-06T20:04:00.198Z,18.57
2023-03-06T20:06:37.696Z,16.10
2023-03-06T20:09:18.255Z,14.57
2023-03-06T20:12:01.765Z,14.23
2023-03-06T20:14:28.836Z,11.63
2023-03-06T20:16:55.631Z,11.23
2023-03-06T20:19:22.424Z,15.57
2023-03-06T20:21:49.421Z,15.30
2023-03-06T20:24:17.876Z,12.67
2023-03-06T20:26:46.039Z,18.40
2023-03-06T20:29:13.570Z,11.80
2023-03-06T20:31:40.817Z,14.77
2023-03-06T20:34:08.148Z,9.43
2023-03-06T20:36:37.648Z,12.37
2023-03-06T20:39:09.124Z,14.17
2023-03-06T20:41:36.030Z,11.97
2023-03-06T20:44:04.375Z,12.87
2023-03-06T20:46:31.631Z,16.10
2023-03-06T20:49:01.999Z,14.80
2023-03-06T20:51:31.902Z,17.17
2023-03-06T20:53:59.561Z,13.10
2023-03-06T20:56:29.223Z,15.73
2023-03-06T20:58:57.028Z,13.83
2023-03-06T21:01:30.169Z,14.93
2023-03-06T21:03:58.250Z,9.80
2023-03-06T21:06:26.386Z,9.87
2023-03-06T21:08:57.713Z,12.27
2023-03-06T21:11:24.494Z,10.03
2023-03-06T21:13:52.581Z,12.37
2023-03-06T21:16:20.984Z,15.50
2023-03-06T21:18:48.250Z,9.27
2023-03-06T21:24:21.412Z,7.50
2023-03-06T21:26:48.623Z,10.73
2023-03-06T21:29:15.345Z,12.10
2023-03-06T21:31:42.368Z,8.67
2023-03-06T21:34:14.163Z,7.33
2023-03-06T21:36:40.948Z,14.20
2023-03-06T21:39:07.803Z,9.77
2023-03-06T21:41:34.816Z,11.20
2023-03-06T21:44:04.526Z,7.50
2023-03-06T21:46:31.909Z,8.77
2023-03-06T21:48:59.286Z,8.07
2023-03-06T21:51:31.435Z,6.37
2023-03-06T21:54:09.073Z,10.17
2023-03-06T21:57:01.320Z,10.70
2023-03-06T21:59:28.846Z,9.77
2023-03-06T22:01:55.632Z,9.67
2023-03-06T22:04:22.914Z,9.23
2023-03-06T22:06:50.067Z,10.90
2023-03-06T22:09:19.274Z,11.00
2023-03-06T22:11:48.826Z,10.10
2023-03-06T22:14:15.773Z,8.17
2023-03-06T22:16:42.552Z,9.30
2023-03-06T22:19:09.318Z,10.67
2023-03-06T22:21:36.263Z,11.60
2023-03-06T22:24:03.195Z,11.47
2023-03-06T22:26:30.238Z,9.13
2023-03-06T22:28:57.889Z,10.03
2023-03-06T22:31:29.093Z,10.17
2023-03-06T22:33:57.792Z,6.30
2023-03-06T22:36:25.198Z,10.10
2023-03-06T22:38:57.919Z,6.57
2023-03-06T22:41:28.943Z,9.00
2023-03-06T22:43:57.335Z,7.70
2023-03-06T22:46:24.436Z,10.67
2023-03-06T22:48:51.346Z,7.47
2023-03-06T22:51:20.119Z,10.63
2023-03-06T22:53:47.940Z,9.30
2023-03-06T22:56:18.521Z,5.30
2023-03-06T22:58:46.034Z,5.90
2023-03-06T23:01:15.463Z,6.17
2023-03-06T23:03:46.732Z,8.07
2023-03-06T23:06:20.191Z,6.23
2023-03-06T23:08:58.554Z,7.53
2023-03-06T23:11:27.824Z,7.27
2023-03-06T23:14:13.722Z,7.67
2023-03-06T23:16:59.482Z,6.27
2023-03-06T23:19:45.028Z,7.30
2023-03-06T23:22:30.704Z,8.73
2023-03-06T23:25:16.528Z,7.53
2023-03-06T23:27:43.358Z,8.00
2023-03-06T23:30:10.737Z,6.17
2023-03-06T23:32:37.559Z,7.33
2023-03-06T23:35:04.678Z,5.80
2023-03-06T23:37:31.370Z,8.37
2023-03-06T23:39:58.344Z,7.60
2023-03-06T23:42:24.988Z,6.17
2023-03-06T23:44:51.784Z,12.87
2023-03-06T23:47:20.082Z,6.37
2023-03-06T23:49:46.998Z,7.53
2023-03-06T23:52:13.872Z,8.73
2023-03-06T23:54:40.747Z,7.07
2023-03-06T23:57:07.682Z,13.37
2023-03-06T23:59:34.429Z,5.27
